Time;durP1;ratioP1;P1;durP2;ratioP2;P2;SDS_P1;SDS_P2;PMS_P1;PMS_P2;Temp;Humidity;BMP_temperature;BMP_pressure;BME280_temperature;BME280_humidity;BME280_pressure;Samples;Min_cycle;Max_cycle;Signal;HPM_P1;HPM_P2
2023/09/02 00:00:08;;;;;;;3.45;3.15;;;;;;;20.76;57.18;93897.66;513098;28;904;-49
2023/09/02 00:00:23;;;;;;;3.70;3.35;;;;;;;20.69;57.29;93885.31;512519;28;1029;-48
2023/09/02 00:00:39;;;;;;;3.87;3.47;;;;;;;20.74;57.17;93892.66;513703;28;777;-49
2023/09/02 00:00:55;;;;;;;3.60;3.28;;;;;;;20.72;57.28;93897.41;514029;28;862;-48
2023/09/02 00:01:10;;;;;;;3.40;3.10;;;;;;;20.72;57.24;93891.78;513968;28;952;-50
2023/09/02 00:01:26;;;;;;;3.43;3.13;;;;;;;20.70;57.22;93898.03;513706;28;1986;-49
2023/09/02 00:01:41;;;;;;;3.70;3.33;;;;;;;20.69;57.20;93895.78;513713;28;1334;-49
2023/09/02 00:01:57;;;;;;;3.53;3.20;;;;;;;20.67;57.25;93890.81;513714;28;1120;-48
2023/09/02 00:02:12;;;;;;;3.50;3.20;;;;;;;20.66;57.27;93886.50;513354;28;1688;-50
2023/09/02 00:02:28;;;;;;;3.88;3.33;;;;;;;20.63;57.29;93896.16;512918;28;817;-49
2023/09/02 00:02:43;;;;;;;3.97;3.38;;;;;;;20.62;57.44;93889.06;513761;28;904;-49
2023/09/02 00:02:59;;;;;;;3.50;3.20;;;;;;;20.61;57.42;93896.03;514008;28;876;-49
2023/09/02 00:03:14;;;;;;;3.77;3.30;;;;;;;20.61;57.39;93892.50;513671;28;1560;-50
2023/09/02 00:03:30;;;;;;;4.00;3.60;;;;;;;20.60;57.41;93897.34;513233;28;1116;-51
2023/09/02 00:03:45;;;;;;;4.07;3.67;;;;;;;20.59;57.41;93889.56;514040;28;785;-49
2023/09/02 00:04:02;;;;;;;3.80;3.43;;;;;;;20.59;57.58;93892.34;513885;28;805;-49
2023/09/02 00:04:18;;;;;;;4.03;3.30;;;;;;;20.59;57.67;93892.34;513934;28;1001;-51
2023/09/02 00:04:33;;;;;;;4.43;3.63;;;;;;;20.59;57.68;93897.97;513879;28;778;-49
2023/09/02 00:04:48;;;;;;;4.07;3.67;;;;;;;20.58;57.65;93888.06;513657;28;1680;-49
2023/09/02 00:05:04;;;;;;;3.58;3.28;;;;;;;20.57;57.73;93898.59;513159;28;1922;-50
2023/09/02 00:05:20;;;;;;;3.30;3.00;;;;;;;20.39;57.69;93869.34;511989;28;936;-49
2023/09/02 00:05:35;;;;;;;3.47;3.17;;;;;;;20.57;57.67;93892.22;513874;28;1008;-49
2023/09/02 00:05:50;;;;;;;3.47;3.17;;;;;;;20.58;57.68;93893.69;513989;28;789;-48
2023/09/02 00:06:06;;;;;;;3.47;3.17;;;;;;;20.57;57.62;93901.38;513924;28;817;-49
2023/09/02 00:06:21;;;;;;;3.40;3.10;;;;;;;20.56;57.67;93887.94;513615;28;1096;-49
2023/09/02 00:06:36;;;;;;;3.60;3.30;;;;;;;20.56;57.93;93893.56;513812;28;949;-49
2023/09/02 00:06:52;;;;;;;4.17;3.77;;;;;;;20.55;58.02;93898.47;513957;28;855;-48
2023/09/02 00:07:07;;;;;;;4.00;3.42;;;;;;;20.55;58.10;93900.53;513877;28;973;-49
2023/09/02 00:07:23;;;;;;;3.77;3.27;;;;;;;20.54;58.24;93899.78;513587;28;1338;-48
2023/09/02 00:07:38;;;;;;;4.18;3.38;;;;;;;20.54;58.32;93894.16;512701;28;1614;-49
2023/09/02 00:07:53;;;;;;;4.20;3.30;;;;;;;20.53;58.31;93900.38;512996;28;1079;-48
2023/09/02 00:08:09;;;;;;;4.33;3.53;;;;;;;20.52;58.45;93899.66;513858;28;901;-48
2023/09/02 00:08:24;;;;;;;4.20;3.37;;;;;;;20.52;58.53;93901.72;513969;28;840;-48
2023/09/02 00:08:39;;;;;;;3.80;3.25;;;;;;;20.51;58.55;93903.78;513780;28;1001;-50
2023/09/02 00:08:55;;;;;;;4.47;3.33;;;;;;;20.50;58.53;93899.53;513975;28;871;-48
2023/09/02 00:09:10;;;;;;;4.50;3.17;;;;;;;20.50;58.69;93898.78;513963;28;781;-48
2023/09/02 00:09:25;;;;;;;3.70;3.15;;;;;;;20.49;58.63;93900.84;513846;28;1103;-49
2023/09/02 00:09:41;;;;;;;3.87;3.47;;;;;;;20.49;58.60;93903.66;513884;28;805;-49
2023/09/02 00:09:56;;;;;;;3.77;3.47;;;;;;;20.49;58.56;93909.25;513795;28;871;-51
2023/09/02 00:10:12;;;;;;;3.50;3.20;;;;;;;20.48;58.60;93902.19;513839;28;908;-49
2023/09/02 00:10:27;;;;;;;3.83;3.13;;;;;;;20.48;58.72;93901.47;513933;28;1016;-49
2023/09/02 00:10:43;;;;;;;3.65;3.13;;;;;;;20.48;58.65;93907.81;513927;28;1153;-49
2023/09/02 00:10:58;;;;;;;3.47;3.10;;;;;;;20.47;58.78;93909.13;513867;28;1126;-49
2023/09/02 00:11:13;;;;;;;3.30;3.00;;;;;;;20.47;58.77;93902.78;513996;28;848;-48
2023/09/02 00:11:29;;;;;;;3.13;2.83;;;;;;;20.45;58.73;93902.66;515692;28;884;-48
2023/09/02 00:11:44;;;;;;;3.37;3.07;;;;;;;20.45;58.67;93900.59;515740;28;1515;-48
2023/09/02 00:11:59;;;;;;;3.83;3.47;;;;;;;20.45;58.78;93908.25;514954;28;1731;-52
2023/09/02 00:12:15;;;;;;;3.97;3.58;;;;;;;20.45;58.59;93902.66;514142;28;1271;-49
2023/09/02 00:12:30;;;;;;;3.67;3.13;;;;;;;20.45;58.73;93900.59;515010;28;1079;-48
2023/09/02 00:12:46;;;;;;;3.30;2.77;;;;;;;20.44;58.64;93904.75;515852;28;1707;-50
2023/09/02 00:13:03;;;;;;;3.15;2.85;;;;;;;20.45;58.56;93905.47;515757;28;882;-49
2023/09/02 00:13:18;;;;;;;3.53;3.22;;;;;;;20.44;58.54;93910.34;515361;28;986;-49
2023/09/02 00:13:34;;;;;;;4.20;3.50;;;;;;;20.45;58.54;93903.41;513874;28;832;-48
2023/09/02 00:13:49;;;;;;;4.55;3.65;;;;;;;20.46;58.50;93904.88;513897;28;819;-48
2023/09/02 00:14:04;;;;;;;4.03;3.60;;;;;;;20.45;58.59;93899.84;513267;28;816;-49
2023/09/02 00:14:20;;;;;;;3.57;3.27;;;;;;;20.46;58.52;93904.13;513129;28;1416;-48
2023/09/02 00:14:35;;;;;;;3.50;3.20;;;;;;;20.46;58.42;93901.34;513276;28;2420;-50
2023/09/02 00:14:50;;;;;;;3.50;3.20;;;;;;;20.46;58.44;93909.75;512644;28;856;-49
2023/09/02 00:15:06;;;;;;;3.73;3.03;;;;;;;20.46;58.48;93910.47;513680;28;926;-49
2023/09/02 00:15:22;;;;;;;3.60;3.25;;;;;;;20.47;58.42;93905.59;512198;28;1032;-49
2023/09/02 00:15:37;;;;;;;4.05;3.65;;;;;;;20.47;58.46;93903.53;513892;28;761;-49
2023/09/02 00:15:53;;;;;;;3.70;3.40;;;;;;;20.47;58.41;93902.78;513831;28;782;-48
2023/09/02 00:16:08;;;;;;;3.47;3.10;;;;;;;20.46;58.46;93904.88;513598;28;864;-50
2023/09/02 00:16:23;;;;;;;3.78;3.13;;;;;;;20.47;58.62;93895.09;513742;28;865;-49
2023/09/02 00:16:39;;;;;;;3.30;3.00;;;;;;;20.46;58.54;93904.88;513957;28;911;-49
2023/09/02 00:16:54;;;;;;;3.23;2.90;;;;;;;20.46;58.55;93901.34;513637;28;1091;-49
2023/09/02 00:17:10;;;;;;;3.40;3.10;;;;;;;20.45;58.49;93900.59;513677;28;809;-50
2023/09/02 00:17:26;;;;;;;3.75;3.33;;;;;;;20.45;58.47;93900.59;512831;28;1739;-48
2023/09/02 00:17:41;;;;;;;3.57;3.20;;;;;;;20.45;58.50;93906.19;513320;28;1329;-49
2023/09/02 00:17:56;;;;;;;3.10;2.80;;;;;;;20.44;58.49;93901.94;513646;28;864;-48
2023/09/02 00:18:12;;;;;;;3.10;2.80;;;;;;;20.43;58.48;93900.47;513913;28;785;-49
2023/09/02 00:18:27;;;;;;;3.10;2.80;;;;;;;20.32;58.43;93881.50;513382;28;1072;-48
2023/09/02 00:18:43;;;;;;;3.00;2.75;;;;;;;20.42;58.52;93896.22;513846;28;1484;-47
2023/09/02 00:18:59;;;;;;;3.43;3.13;;;;;;;20.41;58.63;93897.53;514021;28;813;-47
2023/09/02 00:19:14;;;;;;;3.70;3.40;;;;;;;20.39;58.66;93900.94;513956;28;875;-47
2023/09/02 00:19:29;;;;;;;3.87;3.43;;;;;;;20.38;58.58;93890.31;513888;28;852;-47
2023/09/02 00:19:45;;;;;;;3.63;3.20;;;;;;;20.38;58.67;93904.34;513914;28;1063;-47
2023/09/02 00:20:00;;;;;;;3.47;3.17;;;;;;;20.37;58.67;93894.47;513780;28;1139;-48
2023/09/02 00:20:17;;;;;;;3.53;3.22;;;;;;;20.36;58.75;93904.94;513886;28;1166;-49
2023/09/02 00:20:33;;;;;;;3.72;3.38;;;;;;;20.33;58.67;93897.75;513651;28;855;-47
2023/09/02 00:20:49;;;;;;;3.40;3.10;;;;;;;20.32;58.66;93901.13;513948;28;792;-47
2023/09/02 00:21:04;;;;;;;3.25;2.95;;;;;;;20.31;58.78;93899.69;513875;28;1020;-48
2023/09/02 00:21:19;;;;;;;3.33;3.03;;;;;;;20.30;58.76;93895.41;513866;28;1910;-47
2023/09/02 00:21:35;;;;;;;3.30;3.00;;;;;;;20.28;58.79;93889.66;513761;28;1175;-47
2023/09/02 00:21:50;;;;;;;3.45;3.15;;;;;;;20.27;58.82;93900.13;513196;28;1712;-48
2023/09/02 00:22:06;;;;;;;3.23;2.93;;;;;;;20.26;58.93;93893.06;512843;28;848;-47
2023/09/02 00:22:21;;;;;;;3.40;3.03;;;;;;;20.25;58.84;93897.22;511968;28;781;-49
2023/09/02 00:22:36;;;;;;;4.00;3.40;;;;;;;20.24;58.87;93889.41;513547;28;864;-47
2023/09/02 00:22:52;;;;;;;4.53;3.30;;;;;;;20.23;58.94;93896.34;513858;28;988;-48
2023/09/02 00:23:07;;;;;;;4.30;3.40;;;;;;;20.23;58.88;93899.13;514017;28;781;-48
2023/09/02 00:23:22;;;;;;;5.70;3.72;;;;;;;20.22;59.00;93898.44;513851;28;943;-47
2023/09/02 00:23:45;;;;;;;5.70;3.60;;;;;;;19.98;58.92;93865.22;513906;28;864;-48
2023/09/02 00:24:07;;;;;;;4.25;3.40;;;;;;;20.19;59.08;93899.59;513797;28;876;-47
2023/09/02 00:24:23;;;;;;;4.05;3.25;;;;;;;20.19;59.03;93896.03;513781;28;1079;-48
2023/09/02 00:24:38;;;;;;;3.77;3.10;;;;;;;20.18;59.12;93900.19;513860;28;868;-48
2023/09/02 00:24:54;;;;;;;4.05;3.40;;;;;;;20.17;59.14;93896.66;513967;28;821;-47
2023/09/02 00:25:09;;;;;;;3.90;3.60;;;;;;;20.18;59.07;93903.00;513877;28;935;-48
2023/09/02 00:25:25;;;;;;;3.70;3.40;;;;;;;20.18;59.09;93900.19;513968;28;836;-47
2023/09/02 00:25:40;;;;;;;3.78;3.38;;;;;;;20.16;59.16;93895.19;513166;28;1621;-47
2023/09/02 00:25:56;;;;;;;3.57;3.27;;;;;;;20.17;59.06;93893.13;512668;28;992;-48
2023/09/02 00:26:12;;;;;;;3.47;3.17;;;;;;;20.16;59.05;93902.88;513861;28;1653;-47
2023/09/02 00:26:27;;;;;;;3.45;3.10;;;;;;;20.14;59.11;93892.25;513901;28;951;-47
2023/09/02 00:26:42;;;;;;;3.20;2.90;;;;;;;20.15;59.14;93901.38;513836;28;912;-48
2023/09/02 00:26:58;;;;;;;3.42;3.13;;;;;;;20.14;59.08;93897.13;514025;28;778;-47
2023/09/02 00:27:13;;;;;;;3.97;3.57;;;;;;;20.14;59.10;93897.13;513836;28;886;-48
2023/09/02 00:27:28;;;;;;;4.10;3.70;;;;;;;20.13;58.99;93890.03;513790;28;1201;-48
2023/09/02 00:27:44;;;;;;;4.07;3.47;;;;;;;20.12;59.12;93894.19;513928;28;789;-47
2023/09/02 00:27:59;;;;;;;3.65;3.10;;;;;;;20.11;59.12;93896.25;513835;28;856;-48
2023/09/02 00:28:14;;;;;;;3.20;2.90;;;;;;;20.12;59.05;93897.00;513877;28;931;-48
2023/09/02 00:28:30;;;;;;;3.73;3.33;;;;;;;19.92;59.21;93865.56;513832;28;1032;-47
2023/09/02 00:28:45;;;;;;;4.28;3.65;;;;;;;20.10;59.11;93899.66;511962;28;1254;-48
2023/09/02 00:29:01;;;;;;;3.83;3.50;;;;;;;20.08;59.15;93894.66;513641;28;1229;-47
2023/09/02 00:29:16;;;;;;;3.47;3.17;;;;;;;20.08;59.16;93891.09;513975;28;826;-48
2023/09/02 00:29:32;;;;;;;3.47;3.17;;;;;;;20.08;59.03;93900.25;513887;28;841;-49
2023/09/02 00:29:47;;;;;;;3.57;3.27;;;;;;;20.08;59.09;93896.72;512345;28;1799;-48
2023/09/02 00:30:03;;;;;;;3.90;3.50;;;;;;;20.09;59.18;93895.38;513627;28;899;-47
2023/09/02 00:30:20;;;;;;;3.72;3.35;;;;;;;20.07;59.02;93893.19;512030;28;851;-49
2023/09/02 00:30:35;;;;;;;3.83;3.15;;;;;;;20.09;59.11;93886.97;513771;28;1159;-48
2023/09/02 00:30:53;;;;;;;3.73;3.27;;;;;;;20.08;59.12;93889.03;513908;28;804;-48
2023/09/02 00:31:08;;;;;;;3.47;3.00;;;;;;;20.09;59.10;93892.59;514018;28;886;-48
2023/09/02 00:31:24;;;;;;;3.70;3.30;;;;;;;20.07;59.08;93887.59;513836;28;891;-49
2023/09/02 00:31:39;;;;;;;4.17;3.73;;;;;;;20.10;59.06;93891.97;513871;28;845;-51
2023/09/02 00:31:54;;;;;;;4.00;3.60;;;;;;;20.10;59.04;93891.25;513625;28;1190;-50
2023/09/02 00:32:10;;;;;;;4.13;3.22;;;;;;;20.10;59.08;93894.03;513934;28;765;-49
2023/09/02 00:32:25;;;;;;;3.60;2.93;;;;;;;20.11;59.01;93901.13;513004;28;1724;-48
2023/09/02 00:32:40;;;;;;;3.37;3.07;;;;;;;20.10;59.15;93894.03;513878;28;1061;-51
2023/09/02 00:32:56;;;;;;;3.58;3.22;;;;;;;20.11;59.18;93892.72;512305;28;848;-49
2023/09/02 00:33:11;;;;;;;3.97;3.57;;;;;;;20.10;59.03;93897.59;513246;28;1347;-50
2023/09/02 00:33:26;;;;;;;4.17;3.77;;;;;;;20.09;59.16;93898.19;513769;28;1033;-49
2023/09/02 00:33:42;;;;;;;3.90;3.47;;;;;;;20.10;59.10;93894.03;513947;28;829;-49
2023/09/02 00:33:57;;;;;;;3.87;3.37;;;;;;;20.09;59.18;93893.34;513870;28;813;-50
2023/09/02 00:34:13;;;;;;;3.93;3.53;;;;;;;20.10;59.12;93899.66;513922;28;827;-49
2023/09/02 00:34:28;;;;;;;3.90;3.60;;;;;;;20.10;59.04;93899.66;513872;28;838;-48
2023/09/02 00:34:44;;;;;;;4.00;3.70;;;;;;;20.10;59.12;93889.19;513919;28;831;-49
2023/09/02 00:34:59;;;;;;;3.70;3.40;;;;;;;20.10;59.19;93896.84;513103;28;1597;-50
2023/09/02 00:35:14;;;;;;;3.53;3.20;;;;;;;20.09;59.36;93901.75;512846;28;936;-50
2023/09/02 00:35:30;;;;;;;3.83;3.37;;;;;;;20.08;59.52;93888.31;512488;28;979;-48
2023/09/02 00:35:45;;;;;;;3.58;3.28;;;;;;;20.08;59.56;93900.25;513756;28;916;-49
2023/09/02 00:36:01;;;;;;;3.50;3.20;;;;;;;20.08;59.40;93899.50;513597;28;884;-48
2023/09/02 00:36:16;;;;;;;3.75;3.45;;;;;;;20.07;59.41;93903.66;513772;28;818;-50
2023/09/02 00:36:32;;;;;;;3.80;3.50;;;;;;;20.08;59.34;93893.91;513673;28;813;-49
2023/09/02 00:36:47;;;;;;;3.80;3.50;;;;;;;20.06;59.43;93893.78;513782;28;982;-53
2023/09/02 00:37:03;;;;;;;3.77;3.47;;;;;;;20.07;59.42;93892.47;513603;28;1151;-48
2023/09/02 00:37:18;;;;;;;3.47;3.17;;;;;;;20.07;59.52;93898.06;513824;28;1180;-48
2023/09/02 00:37:33;;;;;;;3.45;3.15;;;;;;;20.06;59.51;93891.72;513702;28;837;-51
2023/09/02 00:37:49;;;;;;;3.53;3.23;;;;;;;20.07;59.46;93900.88;513733;28;947;-48
2023/09/02 00:38:04;;;;;;;3.87;3.47;;;;;;;20.06;59.59;93899.38;513613;28;839;-49
2023/09/02 00:38:19;;;;;;;4.05;3.60;;;;;;;20.05;59.56;93892.31;513731;28;1338;-49
2023/09/02 00:38:35;;;;;;;3.50;3.20;;;;;;;20.05;59.57;93901.47;513837;28;860;-48
2023/09/02 00:38:50;;;;;;;3.33;3.03;;;;;;;20.04;59.49;93891.59;513907;28;872;-49
2023/09/02 00:39:06;;;;;;;3.38;3.00;;;;;;;20.05;59.63;93897.94;511680;28;1071;-49
2023/09/02 00:39:21;;;;;;;3.47;3.10;;;;;;;20.04;59.69;93899.25;511816;29;830;-49
2023/09/02 00:39:36;;;;;;;3.63;3.28;;;;;;;20.03;59.44;93900.59;512248;28;1631;-49
2023/09/02 00:39:52;;;;;;;3.20;2.90;;;;;;;20.04;59.42;93897.19;511686;29;770;-49
2023/09/02 00:40:11;;;;;;;3.37;3.07;;;;;;;20.03;59.45;93897.81;511713;28;832;-50
2023/09/02 00:40:27;;;;;;;4.07;3.67;;;;;;;20.03;59.40;93898.50;509783;29;897;-49
2023/09/02 00:40:51;;;;;;;3.70;3.30;;;;;;;20.04;59.29;93899.25;510862;28;799;-50
2023/09/02 00:41:11;;;;;;;5.97;3.15;;;;;;;20.03;59.25;93903.41;509741;29;824;-49
2023/09/02 00:41:38;;;;;;;5.85;3.20;;;;;;;20.01;59.21;93901.19;508503;29;1907;-49
2023/09/02 00:41:55;;;;;;;3.47;2.95;;;;;;;20.01;59.28;93904.00;505988;29;922;-50
2023/09/02 00:42:12;;;;;;;4.05;3.25;;;;;;;20.00;59.24;93901.78;505853;29;869;-49
2023/09/02 00:42:29;;;;;;;4.30;3.15;;;;;;;20.00;59.36;93899.00;508647;29;1507;-49
2023/09/02 00:42:45;;;;;;;3.35;3.05;;;;;;;19.99;59.31;93903.16;509648;29;1171;-49
2023/09/02 00:43:01;;;;;;;3.40;3.10;;;;;;;19.99;59.39;93909.47;510102;28;873;-49
2023/09/02 00:43:17;;;;;;;3.67;3.30;;;;;;;19.91;59.30;93894.19;507835;29;1093;-49
2023/09/02 00:43:32;;;;;;;3.40;3.10;;;;;;;19.99;59.36;93903.84;508444;29;911;-49
2023/09/02 00:43:48;;;;;;;3.33;3.03;;;;;;;19.98;59.32;93905.19;508962;29;879;-50
2023/09/02 00:44:03;;;;;;;3.60;3.30;;;;;;;19.97;59.38;93905.78;508040;29;1112;-49
2023/09/02 00:44:19;;;;;;;3.53;3.22;;;;;;;19.97;59.38;93898.13;505920;29;896;-48
2023/09/02 00:44:35;;;;;;;3.53;3.22;;;;;;;19.97;59.50;93905.78;505706;29;842;-52
2023/09/02 00:44:50;;;;;;;3.80;3.50;;;;;;;19.96;59.43;93904.34;504456;29;814;-50
2023/09/02 00:45:06;;;;;;;3.47;3.17;;;;;;;19.97;59.40;93903.72;503981;29;1680;-51
2023/09/02 00:45:22;;;;;;;3.33;3.00;;;;;;;19.96;59.57;93904.34;504866;29;1376;-49
2023/09/02 00:45:37;;;;;;;3.80;3.10;;;;;;;19.96;59.59;93904.34;505996;29;1066;-48
2023/09/02 00:45:53;;;;;;;3.83;3.40;;;;;;;19.96;59.57;93898.72;508234;29;807;-48
2023/09/02 00:46:08;;;;;;;4.17;3.53;;;;;;;19.96;59.41;93904.34;509869;29;845;-49
2023/09/02 00:46:24;;;;;;;4.22;3.45;;;;;;;19.74;59.64;93872.03;511765;29;819;-49
2023/09/02 00:46:39;;;;;;;3.87;3.30;;;;;;;19.96;59.54;93904.34;511889;28;762;-51
2023/09/02 00:46:58;;;;;;;3.83;3.42;;;;;;;19.95;59.56;93900.03;513758;28;864;-50
2023/09/02 00:47:13;;;;;;;3.65;3.33;;;;;;;19.95;59.53;93900.78;513493;28;972;-48
2023/09/02 00:47:28;;;;;;;3.63;3.27;;;;;;;19.92;59.44;93899.19;513729;28;782;-49
2023/09/02 00:47:45;;;;;;;3.63;3.33;;;;;;;19.95;59.50;93903.59;513759;28;837;-48
2023/09/02 00:48:00;;;;;;;3.35;3.05;;;;;;;19.95;59.44;93905.66;513652;28;871;-48
2023/09/02 00:48:16;;;;;;;3.55;3.17;;;;;;;19.95;59.60;93900.03;513712;28;881;-48
2023/09/02 00:48:31;;;;;;;3.77;3.40;;;;;;;19.94;59.53;93901.41;511606;28;1060;-48
2023/09/02 00:48:47;;;;;;;3.63;3.30;;;;;;;19.87;59.47;93894.66;511656;29;1087;-48
2023/09/02 00:49:02;;;;;;;3.75;3.42;;;;;;;19.88;59.58;93893.31;511718;29;786;-48
2023/09/02 00:49:17;;;;;;;3.63;3.33;;;;;;;19.93;59.51;93900.66;511770;29;833;-49
2023/09/02 00:49:33;;;;;;;4.10;3.33;;;;;;;19.95;59.45;93908.47;512020;28;1042;-48
2023/09/02 00:49:48;;;;;;;3.80;3.20;;;;;;;19.94;59.45;93902.13;513224;28;1715;-48
2023/09/02 00:50:04;;;;;;;3.67;3.37;;;;;;;19.94;59.50;93910.53;513526;28;1047;-48
2023/09/02 00:50:20;;;;;;;3.63;3.33;;;;;;;19.94;59.36;93902.13;513633;28;932;-48
2023/09/02 00:50:35;;;;;;;3.63;3.33;;;;;;;19.93;59.47;93895.06;513850;28;847;-49
2023/09/02 00:50:51;;;;;;;3.87;3.47;;;;;;;19.93;59.55;93900.66;513843;28;860;-49
2023/09/02 00:51:06;;;;;;;3.60;3.28;;;;;;;19.93;59.45;93900.66;513677;28;917;-47
2023/09/02 00:51:22;;;;;;;3.60;3.27;;;;;;;19.93;59.45;93899.91;513781;28;880;-47
2023/09/02 00:51:37;;;;;;;3.77;3.23;;;;;;;19.85;59.43;93896.59;513580;28;1032;-49
2023/09/02 00:51:52;;;;;;;3.42;3.13;;;;;;;19.91;59.37;93900.53;513615;28;935;-49
2023/09/02 00:52:08;;;;;;;3.40;3.10;;;;;;;19.90;59.46;93903.94;513762;28;883;-47
2023/09/02 00:52:23;;;;;;;3.55;3.25;;;;;;;19.88;59.49;93904.50;513327;28;1707;-47
2023/09/02 00:52:38;;;;;;;3.43;2.90;;;;;;;19.88;59.52;93906.59;511665;28;853;-49
2023/09/02 00:52:54;;;;;;;3.87;3.13;;;;;;;19.87;59.58;93908.66;511766;29;811;-49
2023/09/02 00:53:10;;;;;;;4.22;3.45;;;;;;;19.86;59.73;93901.56;513104;28;960;-48
2023/09/02 00:53:25;;;;;;;3.90;3.20;;;;;;;19.85;59.57;93897.31;513859;28;952;-48
2023/09/02 00:53:40;;;;;;;3.90;3.30;;;;;;;19.86;59.61;93898.06;513840;28;754;-48
2023/09/02 00:53:56;;;;;;;3.53;3.17;;;;;;;19.85;59.60;93902.19;513825;28;804;-47
2023/09/02 00:54:11;;;;;;;3.20;2.90;;;;;;;19.85;59.55;93905.00;513178;28;1409;-48
2023/09/02 00:54:26;;;;;;;3.55;3.25;;;;;;;19.84;59.60;93903.53;513812;28;877;-48
2023/09/02 00:54:42;;;;;;;3.60;3.30;;;;;;;19.85;59.54;93907.78;513709;28;1233;-48
2023/09/02 00:54:57;;;;;;;3.73;3.33;;;;;;;19.83;59.45;93908.41;513944;28;853;-49
2023/09/02 00:55:13;;;;;;;4.53;3.45;;;;;;;19.83;59.61;93904.84;513710;28;1409;-49
2023/09/02 00:55:30;;;;;;;4.50;3.10;;;;;;;19.78;59.42;93898.25;513765;28;793;-48
2023/09/02 00:55:46;;;;;;;3.28;2.90;;;;;;;19.81;59.42;93905.47;514312;28;1778;-47
2023/09/02 00:56:02;;;;;;;3.30;3.00;;;;;;;19.81;59.49;93899.13;515412;28;938;-48
2023/09/02 00:56:17;;;;;;;3.47;3.17;;;;;;;19.80;59.64;93903.25;515596;28;1543;-49
2023/09/02 00:56:33;;;;;;;3.53;3.23;;;;;;;19.80;59.51;93903.25;513442;28;1543;-47
2023/09/02 00:56:48;;;;;;;3.25;2.88;;;;;;;19.77;59.57;93901.66;513738;28;778;-48
2023/09/02 00:57:04;;;;;;;4.20;3.17;;;;;;;19.78;59.61;93900.31;513667;28;927;-48
2023/09/02 00:57:19;;;;;;;4.53;3.38;;;;;;;19.78;59.42;93903.84;511663;28;874;-49
2023/09/02 00:57:35;;;;;;;3.70;3.30;;;;;;;19.78;59.45;93901.03;511917;28;1088;-47
2023/09/02 00:57:50;;;;;;;3.50;3.20;;;;;;;19.76;59.54;93903.72;509674;29;869;-47
2023/09/02 00:58:07;;;;;;;3.50;3.20;;;;;;;19.75;59.53;93899.44;509765;29;851;-47
2023/09/02 00:58:22;;;;;;;3.35;3.05;;;;;;;19.74;59.64;93900.78;508182;29;1709;-47
2023/09/02 00:58:38;;;;;;;4.27;3.10;;;;;;;19.74;59.76;93911.25;509760;29;782;-47
2023/09/02 00:58:56;;;;;;;4.47;3.15;;;;;;;19.74;59.79;93905.63;509553;29;1469;-47
2023/09/02 00:59:12;;;;;;;3.40;3.10;;;;;;;19.73;59.79;93899.28;508179;29;830;-47
2023/09/02 00:59:27;;;;;;;3.33;3.03;;;;;;;19.72;59.85;93906.25;509646;29;857;-48
2023/09/02 00:59:42;;;;;;;3.93;3.37;;;;;;;19.72;59.75;93903.44;510449;29;860;-48
2023/09/02 00:59:59;;;;;;;4.17;3.77;;;;;;;19.70;59.70;93900.50;511372;29;1311;-48
2023/09/02 01:00:16;;;;;;;4.10;3.70;;;;;;;19.70;59.79;93906.13;511582;28;1756;-48
2023/09/02 01:00:32;;;;;;;3.95;3.53;;;;;;;19.71;59.88;93898.44;512618;28;937;-48
2023/09/02 01:00:48;;;;;;;4.10;3.40;;;;;;;19.71;59.96;93901.97;513744;28;852;-48
2023/09/02 01:01:03;;;;;;;3.67;3.23;;;;;;;19.70;60.01;93900.50;513708;28;849;-47
2023/09/02 01:01:19;;;;;;;3.33;3.03;;;;;;;19.70;60.04;93899.78;512096;28;1919;-47
2023/09/02 01:01:35;;;;;;;3.43;3.13;;;;;;;19.69;60.23;93896.22;513199;28;887;-48
2023/09/02 01:01:50;;;;;;;3.65;3.25;;;;;;;19.70;60.19;93894.16;513778;28;886;-47
2023/09/02 01:02:08;;;;;;;3.70;3.40;;;;;;;19.67;60.10;93902.44;513661;28;965;-49
2023/09/02 01:02:23;;;;;;;3.47;3.17;;;;;;;19.65;60.12;93893.91;511992;28;799;-46
2023/09/02 01:02:40;;;;;;;3.47;3.17;;;;;;;19.68;60.01;93903.19;513356;28;837;-47
2023/09/02 01:02:55;;;;;;;3.38;3.08;;;;;;;19.66;59.99;93894.63;513743;28;1013;-48
2023/09/02 01:03:11;;;;;;;3.38;3.00;;;;;;;19.65;59.89;93899.50;511592;28;1361;-48
2023/09/02 01:03:26;;;;;;;3.40;3.10;;;;;;;19.65;59.91;93902.31;508997;29;1693;-49
2023/09/02 01:03:42;;;;;;;3.72;3.35;;;;;;;19.64;60.10;93900.81;509395;28;794;-47
2023/09/02 01:03:58;;;;;;;3.70;3.40;;;;;;;19.64;60.19;93898.03;507949;29;928;-48
2023/09/02 01:04:13;;;;;;;3.78;3.40;;;;;;;19.64;60.25;93894.50;508243;29;1135;-48
2023/09/02 01:04:29;;;;;;;4.20;3.20;;;;;;;19.62;60.22;93889.47;510306;29;1000;-48
2023/09/02 01:04:44;;;;;;;3.47;2.85;;;;;;;19.62;60.06;93892.28;509629;29;1172;-48
2023/09/02 01:05:00;;;;;;;3.40;3.10;;;;;;;19.63;60.02;93896.56;509824;29;840;-48
2023/09/02 01:05:15;;;;;;;3.50;3.20;;;;;;;19.62;59.97;93900.69;508197;29;883;-47
2023/09/02 01:05:32;;;;;;;3.37;3.07;;;;;;;19.62;59.96;93894.38;510958;29;864;-49
2023/09/02 01:05:48;;;;;;;3.63;3.33;;;;;;;19.61;60.00;93888.03;511678;29;943;-49
2023/09/02 01:06:03;;;;;;;3.60;3.30;;;;;;;19.61;60.03;93898.50;510620;29;1842;-48
2023/09/02 01:06:21;;;;;;;3.27;2.97;;;;;;;19.61;59.96;93896.44;508254;29;998;-48
2023/09/02 01:06:37;;;;;;;3.10;2.85;;;;;;;19.59;60.14;93898.34;508779;29;892;-49
2023/09/02 01:06:55;;;;;;;3.10;2.83;;;;;;;19.59;60.13;93893.50;510593;29;1067;-50
2023/09/02 01:07:10;;;;;;;3.00;2.70;;;;;;;19.57;60.02;93889.81;511660;28;903;-49
2023/09/02 01:07:26;;;;;;;3.60;2.93;;;;;;;19.56;60.05;93894.69;511570;28;1442;-48
2023/09/02 01:07:43;;;;;;;4.22;3.13;;;;;;;19.55;60.11;93892.47;511633;29;842;-49
2023/09/02 01:07:59;;;;;;;4.20;3.22;;;;;;;19.55;60.26;93901.63;511642;29;803;-50
2023/09/02 01:08:19;;;;;;;3.90;3.47;;;;;;;19.55;60.27;93895.28;512392;28;1259;-48
2023/09/02 01:08:34;;;;;;;3.97;3.58;;;;;;;19.53;60.42;93887.47;513716;28;969;-49
2023/09/02 01:08:50;;;;;;;3.88;3.45;;;;;;;19.54;60.47;93888.94;515721;28;852;-48
2023/09/02 01:09:05;;;;;;;4.60;4.00;;;;;;;19.50;60.46;93888.66;515698;28;1039;-49
2023/09/02 01:09:21;;;;;;;4.53;3.90;;;;;;;19.52;60.54;93891.59;515710;28;928;-50
2023/09/02 01:09:37;;;;;;;3.78;3.38;;;;;;;19.51;60.59;93892.91;515658;28;929;-49
2023/09/02 01:09:52;;;;;;;3.67;3.37;;;;;;;19.50;60.74;93891.47;515585;28;913;-50
2023/09/02 01:10:08;;;;;;;3.80;3.38;;;;;;;19.50;60.62;93885.88;514924;28;1742;-48
2023/09/02 01:10:23;;;;;;;4.47;3.40;;;;;;;19.50;60.73;93890.72;514577;28;825;-49
2023/09/02 01:10:39;;;;;;;4.90;3.70;;;;;;;19.50;60.75;93891.47;514826;28;2318;-49
2023/09/02 01:10:55;;;;;;;4.10;3.53;;;;;;;19.50;60.86;93893.53;513680;28;770;-48
2023/09/02 01:11:10;;;;;;;3.80;3.40;;;;;;;19.50;60.74;93896.34;513610;28;1044;-50
2023/09/02 01:11:25;;;;;;;4.03;3.53;;;;;;;19.50;60.88;93894.28;513711;28;778;-49
2023/09/02 01:11:41;;;;;;;4.05;3.65;;;;;;;19.51;60.81;93901.31;511609;29;2608;-47
2023/09/02 01:11:56;;;;;;;4.67;4.10;;;;;;;19.49;61.13;93898.38;511600;29;789;-49
2023/09/02 01:12:13;;;;;;;4.57;3.92;;;;;;;19.50;60.74;93894.28;511609;28;875;-49
2023/09/02 01:12:28;;;;;;;3.70;3.38;;;;;;;19.51;60.72;93892.91;511741;29;1091;-48
2023/09/02 01:12:44;;;;;;;3.60;3.30;;;;;;;19.51;60.81;93895.00;512048;28;821;-49
2023/09/02 01:13:00;;;;;;;3.60;3.22;;;;;;;19.51;60.86;93892.22;513698;28;843;-48
2023/09/02 01:13:15;;;;;;;4.15;3.53;;;;;;;19.44;60.72;93888.25;511699;29;892;-49
2023/09/02 01:13:31;;;;;;;4.40;3.77;;;;;;;19.50;60.65;93894.28;512225;28;817;-49
2023/09/02 01:13:46;;;;;;;3.88;3.47;;;;;;;19.51;60.67;93900.63;513684;28;862;-48
2023/09/02 01:14:02;;;;;;;3.90;3.50;;;;;;;19.51;60.69;93903.41;511262;29;1756;-50
2023/09/02 01:14:19;;;;;;;4.63;3.38;;;;;;;19.51;60.56;93895.00;511595;29;1094;-49
2023/09/02 01:14:35;;;;;;;4.40;3.13;;;;;;;19.51;60.65;93895.00;511614;29;955;-49
2023/09/02 01:14:50;;;;;;;3.75;3.35;;;;;;;19.50;60.56;93896.34;511740;29;868;-48
2023/09/02 01:15:06;;;;;;;3.90;3.50;;;;;;;19.49;60.62;93898.38;512266;28;809;-50
2023/09/02 01:15:21;;;;;;;4.03;3.60;;;;;;;19.49;60.80;93897.69;513700;28;903;-49
2023/09/02 01:15:37;;;;;;;3.90;3.47;;;;;;;19.49;60.63;93895.59;513616;28;1004;-49
2023/09/02 01:15:55;;;;;;;3.50;3.20;;;;;;;19.50;60.62;93894.28;513627;28;831;-50
2023/09/02 01:16:10;;;;;;;3.58;3.28;;;;;;;19.51;60.63;93895.72;513862;28;900;-48
2023/09/02 01:16:26;;;;;;;3.57;3.27;;;;;;;19.51;60.51;93895.72;513233;28;1339;-49
2023/09/02 01:16:41;;;;;;;3.73;3.13;;;;;;;19.51;60.45;93898.53;512486;28;1676;-48